Time;durP1;ratioP1;P1;durP2;ratioP2;P2;SDS_P1;SDS_P2;PMS_P1;PMS_P2;Temp;Humidity;BMP_temperature;BMP_pressure;BME280_temperature;BME280_humidity;BME280_pressure;Samples;Min_cycle;Max_cycle;Signal;HPM_P1;HPM_P2
2023/10/10 00:00:23;;;;;;;23.88;18.50;;;;;;;16.33;100.00;101942.63;4964541;28;20499;-69
2023/10/10 00:02:51;;;;;;;29.73;19.75;;;;;;;16.23;100.00;101956.28;4963650;28;21078;-68
2023/10/10 00:05:19;;;;;;;29.65;22.38;;;;;;;16.14;100.00;101953.94;4965248;28;20086;-67
2023/10/10 00:07:46;;;;;;;31.58;22.55;;;;;;;16.10;100.00;101960.28;4952258;28;20042;-72
2023/10/10 00:10:13;;;;;;;38.05;25.25;;;;;;;16.05;100.00;101959.59;4964887;28;20043;-72
2023/10/10 00:12:41;;;;;;;38.92;26.98;;;;;;;16.02;100.00;101957.94;4965054;28;20039;-75
2023/10/10 00:15:13;;;;;;;33.60;24.95;;;;;;;16.01;100.00;101944.66;4965774;28;20047;-72
2023/10/10 00:17:41;;;;;;;33.55;25.50;;;;;;;16.00;100.00;101954.44;4966248;28;20113;-71
2023/10/10 00:20:35;;;;;;;36.22;25.98;;;;;;;15.95;100.00;101951.94;4967202;28;20055;-71
2023/10/10 00:22:58;;;;;;;33.90;24.35;;;;;;;15.92;100.00;101948.53;4965636;28;20117;-71
2023/10/10 00:25:47;;;;;;;35.92;26.23;;;;;;;15.88;100.00;101946.91;4965899;28;20058;-71
2023/10/10 00:28:35;;;;;;;34.67;24.30;;;;;;;15.82;100.00;101945.28;4966647;28;20057;-71
2023/10/10 00:31:26;;;;;;;36.88;26.75;;;;;;;15.79;100.00;101940.94;4966490;28;22281;-71
2023/10/10 00:34:12;;;;;;;39.15;27.23;;;;;;;15.76;100.00;101943.72;4967244;28;20190;-74
2023/10/10 00:37:04;;;;;;;36.58;26.38;;;;;;;15.75;100.00;101943.78;4965331;28;20165;-73
2023/10/10 00:39:31;;;;;;;33.83;25.55;;;;;;;15.74;100.00;101936.72;4966151;28;20455;-73
2023/10/10 00:42:05;;;;;;;39.63;27.40;;;;;;;15.70;100.00;101935.97;4957880;28;20081;-72
2023/10/10 00:44:53;;;;;;;39.80;26.23;;;;;;;15.66;100.00;101936.97;4963892;28;20102;-72
2023/10/10 00:47:44;;;;;;;40.28;27.63;;;;;;;15.63;100.00;101937.06;4957094;28;20153;-72
2023/10/10 00:50:18;;;;;;;36.70;26.50;;;;;;;15.59;100.00;101928.34;4964974;28;20060;-73
2023/10/10 00:53:00;;;;;;;37.33;27.67;;;;;;;15.60;100.00;101938.03;4965621;28;20051;-74
2023/10/10 00:55:33;;;;;;;38.58;27.60;;;;;;;15.55;100.00;101940.00;4966151;28;20308;-73
2023/10/10 00:58:01;;;;;;;39.58;28.55;;;;;;;15.52;100.00;101934.78;4966662;28;20047;-73
2023/10/10 01:00:32;;;;;;;43.13;28.38;;;;;;;15.46;100.00;101930.53;4966149;28;20051;-71
2023/10/10 01:03:19;;;;;;;38.78;28.23;;;;;;;15.43;100.00;101927.13;4965573;28;20053;-71
2023/10/10 01:05:55;;;;;;;39.58;28.55;;;;;;;15.39;100.00;101937.00;4963651;28;20495;-70
2023/10/10 01:08:26;;;;;;;39.33;28.35;;;;;;;15.33;100.00;101924.78;4966745;28;20900;-71
2023/10/10 01:11:04;;;;;;;36.08;27.95;;;;;;;15.29;100.00;101930.25;4965789;28;20534;-71
2023/10/10 01:13:33;;;;;;;42.97;30.15;;;;;;;15.24;100.00;101925.09;4962820;28;20049;-71
2023/10/10 01:16:05;;;;;;;41.67;28.38;;;;;;;15.18;100.00;101919.94;4965472;28;20075;-71
2023/10/10 01:18:57;;;;;;;44.30;29.17;;;;;;;15.11;100.00;101913.09;4966901;28;20046;-70
2023/10/10 01:21:43;;;;;;;39.72;29.38;;;;;;;15.04;100.00;101923.94;4967367;28;20603;-71
2023/10/10 01:24:15;;;;;;;39.00;29.52;;;;;;;14.98;100.00;101917.94;4970888;28;20041;-70
2023/10/10 01:26:45;;;;;;;42.20;29.77;;;;;;;14.93;100.00;101910.13;4966470;28;20102;-71
2023/10/10 01:29:21;;;;;;;47.22;30.65;;;;;;;14.89;100.00;101904.06;4971498;28;20117;-71
2023/10/10 01:31:51;;;;;;;45.42;31.45;;;;;;;14.85;100.00;101904.19;4970596;28;20555;-70
2023/10/10 01:34:43;;;;;;;45.05;31.77;;;;;;;14.79;100.00;101897.28;4955460;28;20594;-71
2023/10/10 01:37:29;;;;;;;42.90;30.65;;;;;;;14.74;100.00;101899.22;4969493;28;20093;-71
2023/10/10 01:40:16;;;;;;;44.58;31.95;;;;;;;14.70;100.00;101895.78;4968537;28;20058;-71
2023/10/10 01:43:01;;;;;;;45.50;31.08;;;;;;;14.65;100.00;101889.69;4969478;28;20065;-73
2023/10/10 01:45:30;;;;;;;43.08;32.63;;;;;;;14.62;100.00;101879.22;4967013;28;20039;-73
2023/10/10 01:47:57;;;;;;;48.85;32.95;;;;;;;14.58;100.00;101883.75;4968599;28;20043;-74
2023/10/10 01:50:26;;;;;;;44.17;31.73;;;;;;;14.55;100.00;101889.13;4967413;28;20484;-74
2023/10/10 01:52:56;;;;;;;47.33;33.08;;;;;;;14.52;100.00;101889.22;4966251;28;20039;-74
2023/10/10 01:55:25;;;;;;;46.15;32.33;;;;;;;14.48;100.00;101887.59;4967048;28;20046;-74
2023/10/10 01:57:54;;;;;;;51.03;32.90;;;;;;;14.46;100.00;101878.81;4964213;28;20677;-72
2023/10/10 02:00:26;;;;;;;47.05;31.17;;;;;;;14.45;100.00;101877.06;4966966;28;20701;-72
2023/10/10 02:02:56;;;;;;;47.70;32.78;;;;;;;14.41;100.00;101872.75;4968614;28;20058;-71
2023/10/10 02:08:09;;;;;;;47.10;31.05;;;;;;;14.37;100.00;101855.22;4968085;28;20043;-71
2023/10/10 02:10:43;;;;;;;43.05;31.58;;;;;;;14.35;100.00;101860.53;4968301;28;20042;-71
2023/10/10 02:13:11;;;;;;;43.25;31.55;;;;;;;14.33;100.00;101854.44;4968575;28;20062;-71
2023/10/10 02:15:39;;;;;;;52.10;33.25;;;;;;;14.31;100.00;101860.69;4967717;28;20035;-71
2023/10/10 02:18:17;;;;;;;44.13;32.10;;;;;;;14.32;100.00;101865.06;4968963;28;20443;-72
2023/10/10 02:23:31;;;;;;;43.08;31.38;;;;;;;14.25;100.00;101857.31;4966436;28;20258;-69
2023/10/10 02:26:14;;;;;;;51.25;33.15;;;;;;;14.22;100.00;101854.72;4967946;28;20054;-71
2023/10/10 02:28:49;;;;;;;53.67;34.67;;;;;;;14.19;100.00;101857.50;4966268;28;20042;-71
2023/10/10 02:31:18;;;;;;;55.15;34.70;;;;;;;14.19;100.00;101860.16;4965451;28;20071;-72
2023/10/10 02:33:50;;;;;;;54.95;33.42;;;;;;;14.17;100.00;101859.31;4967903;28;20043;-73
2023/10/10 02:36:29;;;;;;;52.45;33.95;;;;;;;14.16;100.00;101854.03;4965211;28;20085;-74
2023/10/10 02:41:49;;;;;;;53.90;35.03;;;;;;;14.12;100.00;101861.22;4960273;28;20101;-73
2023/10/10 02:44:38;;;;;;;61.83;35.08;;;;;;;14.10;100.00;101857.75;4966506;28;20038;-72
2023/10/10 02:47:05;;;;;;;58.45;36.33;;;;;;;14.07;100.00;101850.75;4968351;28;20050;-73
2023/10/10 02:49:37;;;;;;;72.28;37.03;;;;;;;14.08;100.00;101849.84;4967014;28;20034;-73
2023/10/10 02:52:07;;;;;;;94.90;38.65;;;;;;;14.07;100.00;101855.19;4967968;28;20046;-73
2023/10/10 02:54:44;;;;;;;83.20;38.60;;;;;;;14.06;100.00;101845.50;4949199;28;20046;-72
2023/10/10 02:57:34;;;;;;;93.45;39.13;;;;;;;14.05;100.00;101852.56;4966220;28;20420;-72
2023/10/10 03:00:15;;;;;;;99.13;40.30;;;;;;;14.05;100.00;101851.72;4957208;28;20518;-72
2023/10/10 03:02:53;;;;;;;96.75;40.28;;;;;;;14.02;100.00;101849.13;4964743;28;20049;-73
2023/10/10 03:05:39;;;;;;;83.35;40.15;;;;;;;14.04;100.00;101853.47;4966348;28;20058;-72
2023/10/10 03:08:14;;;;;;;80.45;39.38;;;;;;;14.02;100.00;101842.06;4962936;28;20049;-73
2023/10/10 03:10:46;;;;;;;120.05;43.63;;;;;;;14.03;100.00;101846.47;4966471;28;20042;-73
2023/10/10 03:13:27;;;;;;;71.20;38.25;;;;;;;14.03;100.00;101841.16;4958737;28;20066;-72
2023/10/10 03:16:40;;;;;;;147.18;47.45;;;;;;;14.05;100.00;101847.28;4964993;28;20035;-73
2023/10/10 03:21:50;;;;;;;67.93;40.63;;;;;;;14.04;100.00;101849.97;4965297;28;20042;-74
2023/10/10 03:24:49;;;;;;;93.93;42.35;;;;;;;14.07;100.00;101847.25;4966955;28;20042;-75
2023/10/10 03:29:47;;;;;;;84.63;43.50;;;;;;;14.08;100.00;101849.84;4967979;28;20042;-74
2023/10/10 03:32:45;;;;;;;82.78;44.95;;;;;;;14.09;100.00;101854.22;4967144;28;20039;-75
2023/10/10 03:35:33;;;;;;;69.88;41.55;;;;;;;14.09;100.00;101848.06;4967118;28;20035;-75
2023/10/10 03:38:42;;;;;;;73.53;41.80;;;;;;;14.08;100.00;101849.84;4965625;28;20051;-74
2023/10/10 03:41:26;;;;;;;128.57;47.33;;;;;;;14.09;100.00;101850.72;4967238;28;20034;-75
2023/10/10 05:23:47;;;;;;;59.08;41.45;;;;;;;13.32;100.00;101782.16;4966287;28;20047;-73
2023/10/10 05:26:19;;;;;;;54.67;40.08;;;;;;;13.30;100.00;101778.69;4956641;28;20050;-73
2023/10/10 05:28:48;;;;;;;56.08;38.85;;;;;;;13.27;100.00;101778.75;4967165;28;20060;-74
2023/10/10 05:31:21;;;;;;;55.42;38.63;;;;;;;13.25;100.00;101778.78;4966117;28;20039;-74
2023/10/10 05:33:48;;;;;;;49.65;38.70;;;;;;;13.25;100.00;101776.16;4964241;28;20129;-74
2023/10/10 05:36:18;;;;;;;55.53;38.45;;;;;;;13.23;100.00;101783.25;4966801;28;20042;-74
2023/10/10 05:38:48;;;;;;;54.95;38.63;;;;;;;13.22;100.00;101780.66;4955709;28;20047;-74
2023/10/10 05:41:18;;;;;;;53.25;39.13;;;;;;;13.21;100.00;101774.47;4953158;28;20052;-74
2023/10/10 05:43:49;;;;;;;56.58;38.00;;;;;;;13.18;100.00;101771.91;4949422;28;20515;-74
2023/10/10 05:46:17;;;;;;;57.05;38.45;;;;;;;13.16;100.00;101769.31;4956218;28;20043;-73
2023/10/10 05:48:46;;;;;;;56.38;37.88;;;;;;;13.15;100.00;101761.41;4966617;28;20031;-73
2023/10/10 05:51:14;;;;;;;58.65;36.33;;;;;;;13.14;100.00;101770.25;4962629;28;20090;-74
2023/10/10 05:53:41;;;;;;;52.00;36.65;;;;;;;13.12;100.00;101764.13;4949039;28;20095;-74
2023/10/10 05:56:16;;;;;;;49.63;35.60;;;;;;;13.11;100.00;101767.69;4957477;28;20113;-74
2023/10/10 05:58:44;;;;;;;50.22;35.72;;;;;;;13.10;100.00;101769.47;4960876;28;20034;-74
2023/10/10 06:01:34;;;;;;;47.13;33.47;;;;;;;13.06;100.00;101762.53;4962345;28;20051;-74
2023/10/10 06:04:02;;;;;;;47.78;34.50;;;;;;;13.07;100.00;101769.56;4964348;28;20507;-75
2023/10/10 06:06:29;;;;;;;48.35;33.67;;;;;;;13.05;100.00;101766.97;4959891;28;20043;-75
2023/10/10 06:09:04;;;;;;;44.25;32.90;;;;;;;13.04;100.00;101754.63;4969754;28;20105;-74
2023/10/10 06:11:34;;;;;;;45.45;32.65;;;;;;;13.06;100.00;101773.09;4972396;28;20118;-74
2023/10/10 06:14:01;;;;;;;46.22;33.03;;;;;;;13.07;100.00;101772.19;4968473;28;20039;-74
2023/10/10 06:16:28;;;;;;;46.42;31.85;;;;;;;13.07;100.00;101774.84;4975102;28;20809;-74
2023/10/10 06:18:57;;;;;;;44.88;31.42;;;;;;;13.09;100.00;101773.03;4969276;28;20045;-75
2023/10/10 06:21:25;;;;;;;45.15;29.95;;;;;;;13.12;100.00;101767.66;4968534;28;20049;-74
2023/10/10 06:23:52;;;;;;;44.88;30.15;;;;;;;13.12;100.00;101767.66;4969018;28;20599;-75
2023/10/10 06:26:21;;;;;;;42.30;27.55;;;;;;;13.13;100.00;101769.38;4968725;28;20042;-74
2023/10/10 06:28:53;;;;;;;41.20;26.85;;;;;;;13.16;100.00;101773.75;4969581;28;20043;-75
2023/10/10 06:31:21;;;;;;;39.28;26.58;;;;;;;13.19;100.00;101771.00;4968512;28;20401;-75
2023/10/10 06:33:50;;;;;;;36.63;25.98;;;;;;;13.25;100.00;101780.56;4966755;28;20050;-75
2023/10/10 06:41:36;;;;;;;35.47;23.58;;;;;;;13.35;100.00;101766.16;4967937;28;20626;-75
2023/10/10 06:44:04;;;;;;;28.35;22.10;;;;;;;13.38;100.00;101766.09;4968067;28;20059;-74
2023/10/10 06:46:37;;;;;;;36.75;22.88;;;;;;;13.42;100.00;101761.59;4969424;28;20572;-74
2023/10/10 06:49:04;;;;;;;37.75;22.75;;;;;;;13.45;100.00;101757.09;4969068;28;20076;-75
2023/10/10 06:51:39;;;;;;;31.38;21.27;;;;;;;13.51;100.00;101753.41;4968489;28;20050;-74
2023/10/10 06:54:19;;;;;;;30.88;19.67;;;;;;;13.54;100.00;101755.09;4967894;28;20043;-74
2023/10/10 06:59:28;;;;;;;33.17;19.25;;;;;;;13.64;100.00;101757.44;4968552;28;20043;-74
2023/10/10 07:01:59;;;;;;;30.50;20.08;;;;;;;13.71;100.00;101762.56;4969163;28;20105;-74
2023/10/10 07:04:27;;;;;;;26.90;18.83;;;;;;;13.75;100.00;101758.91;4968669;28;20055;-75
2023/10/10 07:07:00;;;;;;;29.08;18.52;;;;;;;13.78;100.00;101762.34;4969599;28;20046;-75
2023/10/10 07:09:29;;;;;;;31.50;18.38;;;;;;;13.84;100.00;101765.75;4977108;28;20050;-74
2023/10/10 07:12:09;;;;;;;27.15;18.13;;;;;;;13.88;100.00;101760.31;4969423;28;20124;-74
2023/10/10 07:14:46;;;;;;;30.15;18.05;;;;;;;13.92;100.00;101753.97;4981694;28;20081;-74
2023/10/10 07:17:14;;;;;;;22.73;17.15;;;;;;;13.99;100.00;101754.66;4987929;28;20421;-74
2023/10/10 07:22:33;;;;;;;25.30;16.35;;;;;;;14.16;100.00;101735.59;4988711;28;20491;-74
2023/10/10 07:25:07;;;;;;;23.33;15.60;;;;;;;14.27;100.00;101737.91;4988683;28;20046;-74
2023/10/10 07:27:35;;;;;;;22.50;15.30;;;;;;;14.36;100.00;101742.06;4988305;28;20052;-75
2023/10/10 07:30:20;;;;;;;22.08;15.23;;;;;;;14.44;100.00;101738.25;4988163;28;20105;-74
2023/10/10 07:32:50;;;;;;;23.55;13.73;;;;;;;14.58;100.00;101750.19;4982163;28;20706;-74
2023/10/10 07:35:25;;;;;;;27.10;15.18;;;;;;;14.68;100.00;101749.00;4968487;28;20047;-75
2023/10/10 07:37:53;;;;;;;19.40;14.35;;;;;;;14.76;100.00;101762.03;4968710;28;20082;-74
2023/10/10 07:40:21;;;;;;;24.65;14.95;;;;;;;14.84;100.00;101767.94;4968526;28;20680;-74
2023/10/10 07:42:59;;;;;;;27.55;14.63;;;;;;;14.89;100.00;101763.34;4966836;28;20072;-73
2023/10/10 07:45:33;;;;;;;23.67;14.63;;;;;;;14.97;100.00;101762.22;4967404;28;20046;-74
2023/10/10 07:50:35;;;;;;;28.85;14.15;;;;;;;15.04;99.16;101761.06;4967981;28;20051;-74
2023/10/10 07:53:05;;;;;;;;;;;;;;;15.09;99.21;101761.81;4969332;28;20043;-74
2023/10/10 07:55:53;;;;;;;21.75;14.85;;;;;;;15.15;98.80;101774.00;4968159;28;19922;-74
2023/10/10 07:58:23;;;;;;;29.60;14.95;;;;;;;15.20;98.21;101762.31;4968087;28;20035;-74
2023/10/10 08:01:08;;;;;;;23.00;15.13;;;;;;;15.26;97.92;101763.00;4967303;28;20476;-74
2023/10/10 08:03:37;;;;;;;23.92;13.90;;;;;;;15.31;97.23;101763.72;4972073;28;20038;-74
2023/10/10 08:06:08;;;;;;;27.52;15.90;;;;;;;15.37;97.12;101760.81;4967698;28;20566;-74
2023/10/10 08:08:36;;;;;;;19.98;13.68;;;;;;;15.44;96.70;101758.81;4968111;28;20042;-74
2023/10/10 08:11:12;;;;;;;23.10;15.70;;;;;;;15.51;95.62;101766.50;4967994;28;20049;-74
2023/10/10 08:13:48;;;;;;;26.20;15.20;;;;;;;15.58;95.49;101760.97;4967911;28;20038;-74
2023/10/10 08:16:29;;;;;;;22.88;15.10;;;;;;;15.69;95.54;101767.59;4967858;28;20058;-73
2023/10/10 08:19:04;;;;;;;23.95;16.13;;;;;;;15.80;95.56;101771.66;4967795;28;20072;-74
2023/10/10 08:21:37;;;;;;;25.42;15.60;;;;;;;15.94;95.47;101760.53;4968572;28;20051;-73
2023/10/10 08:24:07;;;;;;;28.58;15.90;;;;;;;16.06;95.68;101756.56;4966779;28;20051;-73
2023/10/10 08:26:41;;;;;;;24.08;15.27;;;;;;;16.18;95.60;101765.84;4965074;28;20522;-74
2023/10/10 08:29:11;;;;;;;27.00;15.60;;;;;;;16.28;95.14;101761.88;4964138;28;20039;-74
2023/10/10 08:31:42;;;;;;;26.98;15.45;;;;;;;16.37;94.63;101758.84;4969307;28;20043;-74
2023/10/10 08:34:10;;;;;;;23.45;14.70;;;;;;;16.43;94.21;101755.94;4973547;28;20038;-74
2023/10/10 08:36:43;;;;;;;22.80;14.63;;;;;;;16.48;94.09;101753.13;4982417;28;20038;-73
2023/10/10 08:41:45;;;;;;;23.95;14.82;;;;;;;16.59;93.26;101750.00;4971599;28;20043;-73
2023/10/10 08:44:17;;;;;;;22.88;15.50;;;;;;;16.65;92.81;101754.19;4967648;28;20267;-73
2023/10/10 08:46:46;;;;;;;26.30;14.73;;;;;;;16.72;93.54;101745.91;4970302;28;20655;-73
2023/10/10 08:49:15;;;;;;;28.27;15.50;;;;;;;16.81;92.31;101751.78;4969906;28;20043;-74
2023/10/10 08:51:45;;;;;;;24.73;13.88;;;;;;;16.90;91.43;101751.38;4970516;28;20027;-74
2023/10/10 08:54:15;;;;;;;22.08;14.05;;;;;;;16.96;91.26;101755.63;4971508;28;20535;-74
2023/10/10 08:56:59;;;;;;;24.27;13.98;;;;;;;17.00;90.35;101754.53;4970396;28;20716;-74
2023/10/10 08:59:32;;;;;;;18.65;13.45;;;;;;;17.01;90.11;101750.94;4971600;28;20586;-73
2023/10/10 09:02:16;;;;;;;30.63;13.57;;;;;;;17.07;89.69;101762.19;4969399;28;20447;-74
2023/10/10 09:04:44;;;;;;;22.58;13.93;;;;;;;17.15;90.24;101756.53;4984142;28;20054;-73
2023/10/10 09:07:20;;;;;;;22.05;12.23;;;;;;;17.23;88.68;101764.22;4970166;28;20599;-74
2023/10/10 09:10:04;;;;;;;29.10;13.93;;;;;;;17.27;88.80;101760.47;4951947;28;20047;-73
2023/10/10 09:12:50;;;;;;;20.45;13.18;;;;;;;17.33;88.57;101768.22;4959385;28;20034;-73
2023/10/10 09:15:17;;;;;;;25.67;13.05;;;;;;;17.35;87.79;101762.78;4967011;28;20126;-74
2023/10/10 09:17:46;;;;;;;18.70;11.85;;;;;;;17.39;87.06;101767.91;4970064;28;20564;-74
2023/10/10 09:20:28;;;;;;;22.88;12.43;;;;;;;17.42;86.71;101766.91;4966805;28;20046;-74
2023/10/10 09:23:04;;;;;;;29.77;13.00;;;;;;;17.46;86.00;101754.31;4968619;28;20036;-74
2023/10/10 09:25:41;;;;;;;21.80;11.90;;;;;;;17.49;86.51;101754.19;4971003;28;20122;-74
2023/10/10 09:28:10;;;;;;;33.35;12.88;;;;;;;17.52;84.96;101751.38;4969719;28;20141;-74
2023/10/10 09:30:45;;;;;;;22.13;12.05;;;;;;;17.55;85.33;101761.88;4969279;28;20047;-73
2023/10/10 09:36:08;;;;;;;18.38;11.68;;;;;;;17.66;85.66;101762.28;4967177;28;20042;-73
2023/10/10 09:38:43;;;;;;;23.45;12.02;;;;;;;17.72;83.66;101761.13;4959773;28;20125;-74
2023/10/10 09:41:14;;;;;;;35.38;13.10;;;;;;;17.74;84.02;101753.06;4968480;28;20118;-74
2023/10/10 09:49:51;;;;;;;17.00;11.65;;;;;;;18.03;84.43;101756.22;4969660;28;20387;-74
2023/10/10 10:09:20;;;;;;;20.60;10.65;;;;;;;18.44;79.59;101750.69;4950852;28;20762;-75
2023/10/10 10:11:51;;;;;;;18.58;10.43;;;;;;;18.53;80.03;101752.91;4969204;28;20479;-74
2023/10/10 10:14:35;;;;;;;18.08;11.07;;;;;;;18.63;79.91;101740.81;4970127;28;20062;-73
2023/10/10 10:17:18;;;;;;;21.35;10.57;;;;;;;18.83;79.43;101732.72;4969626;28;20146;-74
2023/10/10 10:19:46;;;;;;;21.83;10.53;;;;;;;18.86;78.54;101732.56;4970119;28;20113;-74
2023/10/10 10:22:17;;;;;;;14.98;10.38;;;;;;;18.96;77.70;101735.69;4969048;28;20039;-75
2023/10/10 10:24:48;;;;;;;19.77;10.13;;;;;;;19.04;77.00;101739.66;4968701;28;20061;-74
2023/10/10 10:27:39;;;;;;;17.92;10.35;;;;;;;19.14;76.68;101736.50;4969585;28;20054;-75
2023/10/10 10:32:51;;;;;;;21.10;10.00;;;;;;;19.32;75.92;101730.22;4967701;28;20042;-76
2023/10/10 10:35:59;;;;;;;;;;;;;;;19.40;76.67;101736.00;4970685;28;20109;-76
2023/10/10 10:38:26;;;;;;;15.30;9.13;;;;;;;19.58;74.51;101733.28;4969226;28;19926;-77
2023/10/10 10:41:16;;;;;;;20.25;10.02;;;;;;;19.69;74.53;101736.25;4970413;28;20054;-75
2023/10/10 10:43:52;;;;;;;24.38;10.52;;;;;;;19.79;73.00;101723.19;4969264;28;20633;-74
2023/10/10 10:46:27;;;;;;;14.02;8.93;;;;;;;19.91;73.14;101713.69;4969383;28;20074;-75
2023/10/10 10:49:07;;;;;;;24.13;9.25;;;;;;;20.04;73.04;101716.53;4969028;28;20058;-74
2023/10/10 10:51:43;;;;;;;27.85;9.52;;;;;;;20.17;72.19;101714.00;4969673;28;20130;-74
2023/10/10 10:57:02;;;;;;;17.17;8.93;;;;;;;20.41;71.97;101706.38;4970103;28;20047;-75
2023/10/10 10:59:38;;;;;;;13.77;8.80;;;;;;;20.54;71.94;101708.34;4968771;28;20049;-75
2023/10/10 11:02:15;;;;;;;13.98;8.13;;;;;;;20.63;69.55;101710.47;4967191;28;20089;-74
2023/10/10 11:04:50;;;;;;;21.05;8.35;;;;;;;20.68;69.12;101699.47;4973718;28;20049;-74
2023/10/10 11:07:29;;;;;;;17.20;8.00;;;;;;;20.76;67.60;101719.53;4974772;28;20050;-74
2023/10/10 11:10:09;;;;;;;17.42;8.60;;;;;;;20.80;69.10;101709.50;4985644;28;20137;-74
2023/10/10 11:12:40;;;;;;;14.10;8.15;;;;;;;20.93;69.10;101705.13;4972220;28;20047;-74
2023/10/10 11:15:10;;;;;;;21.33;8.07;;;;;;;21.06;68.61;101707.06;4969207;28;20042;-74
2023/10/10 11:17:42;;;;;;;17.10;7.95;;;;;;;21.20;68.37;101706.22;4967834;28;20047;-74
2023/10/10 11:20:55;;;;;;;25.23;8.93;;;;;;;21.31;66.92;101702.84;4969215;28;20043;-75
2023/10/10 11:23:14;;;;;;;14.82;8.20;;;;;;;21.38;66.87;101688.09;4968000;28;20058;-75
2023/10/10 11:25:45;;;;;;;20.58;8.52;;;;;;;21.50;67.48;101691.84;4949310;28;20047;-75
2023/10/10 11:28:24;;;;;;;13.68;7.25;;;;;;;21.62;66.54;101690.22;4949188;28;20094;-75
2023/10/10 11:30:57;;;;;;;19.30;8.18;;;;;;;21.70;66.16;101682.56;4958973;28;20035;-75
2023/10/10 11:33:48;;;;;;;15.65;7.85;;;;;;;21.80;65.76;101696.25;4967309;28;20035;-74
2023/10/10 11:36:37;;;;;;;24.70;7.47;;;;;;;21.86;64.62;101698.53;4968242;28;20120;-73
2023/10/10 11:39:31;;;;;;;25.52;7.70;;;;;;;21.94;64.54;101693.50;4968245;28;20069;-74
2023/10/10 11:42:04;;;;;;;19.83;7.43;;;;;;;22.00;61.88;101689.56;4967458;28;20039;-74
2023/10/10 11:44:33;;;;;;;16.63;6.78;;;;;;;21.98;62.70;101687.00;4967969;28;20046;-73
2023/10/10 11:47:07;;;;;;;15.80;6.40;;;;;;;22.01;62.18;101677.88;4968096;28;20097;-74
2023/10/10 11:49:34;;;;;;;19.85;7.13;;;;;;;22.03;63.07;101673.28;4967264;28;20062;-75
2023/10/10 11:52:01;;;;;;;13.32;6.82;;;;;;;22.10;62.96;101676.41;4968547;28;20039;-75
2023/10/10 11:54:29;;;;;;;21.00;7.40;;;;;;;22.19;62.69;101665.06;4967796;28;20054;-73
2023/10/10 11:56:56;;;;;;;12.85;6.03;;;;;;;22.29;62.63;101670.66;4967442;28;20046;-74
2023/10/10 11:59:24;;;;;;;13.00;6.57;;;;;;;22.38;62.80;101658.44;4968699;28;20049;-73
2023/10/10 12:01:51;;;;;;;15.32;5.68;;;;;;;22.49;62.56;101653.25;4965448;28;20066;-74
2023/10/10 12:04:31;;;;;;;17.00;6.32;;;;;;;22.59;62.06;101658.84;4967117;28;20106;-74
2023/10/10 12:07:01;;;;;;;14.52;6.40;;;;;;;22.66;61.24;101646.72;4968044;28;20053;-74
2023/10/10 12:09:33;;;;;;;11.75;5.85;;;;;;;22.73;60.08;101650.69;4967753;28;20055;-74
2023/10/10 12:12:03;;;;;;;17.52;5.80;;;;;;;22.80;58.83;101646.59;4967096;28;20046;-74
2023/10/10 12:14:31;;;;;;;13.32;5.78;;;;;;;22.86;58.06;101647.16;4967934;28;20788;-73
2023/10/10 12:17:05;;;;;;;20.75;6.45;;;;;;;22.87;58.55;101641.66;4967525;28;20534;-72
2023/10/10 12:19:36;;;;;;;16.47;5.10;;;;;;;22.93;57.99;101638.56;4958884;28;20454;-74
2023/10/10 12:22:10;;;;;;;13.25;5.53;;;;;;;23.00;57.43;101633.59;4968431;28;20535;-74
2023/10/10 12:24:41;;;;;;;19.27;5.90;;;;;;;23.06;56.43;101627.78;4966339;28;20133;-74
2023/10/10 12:27:12;;;;;;;15.45;5.78;;;;;;;23.14;56.87;101629.94;4967460;28;20039;-74
2023/10/10 12:29:39;;;;;;;11.30;5.60;;;;;;;23.23;57.13;101621.25;4967889;28;20047;-74
2023/10/10 12:32:18;;;;;;;12.68;4.53;;;;;;;23.34;56.38;101625.84;4967644;28;20043;-74
2023/10/10 12:34:46;;;;;;;16.60;5.88;;;;;;;23.45;55.33;101633.16;4966746;28;20051;-74
2023/10/10 12:37:17;;;;;;;11.73;5.20;;;;;;;23.52;56.36;101620.09;4974570;28;20043;-74
2023/10/10 12:39:45;;;;;;;12.77;5.97;;;;;;;23.57;55.25;101617.94;4964765;28;20121;-74
2023/10/10 12:42:13;;;;;;;14.00;5.03;;;;;;;23.63;54.99;101611.25;4958513;28;20523;-73
2023/10/10 12:44:40;;;;;;;9.48;4.43;;;;;;;23.69;54.03;101617.03;4961079;28;20058;-74
2023/10/10 12:47:07;;;;;;;9.95;5.43;;;;;;;23.72;54.36;101616.78;4961452;28;20039;-74
2023/10/10 12:49:44;;;;;;;11.10;5.10;;;;;;;23.76;55.51;101613.88;4960982;28;20047;-74
2023/10/10 12:52:11;;;;;;;13.95;5.30;;;;;;;23.80;55.11;101618.91;4958175;28;20510;-73
2023/10/10 12:54:41;;;;;;;11.57;5.03;;;;;;;23.87;55.13;101624.69;4964777;28;20039;-74
2023/10/10 12:57:13;;;;;;;10.90;5.20;;;;;;;23.86;53.05;101620.28;4959418;28;20090;-73
2023/10/10 12:59:46;;;;;;;18.27;5.78;;;;;;;23.86;54.40;101621.13;4963363;28;20050;-74
2023/10/10 13:02:15;;;;;;;12.57;5.27;;;;;;;23.89;52.93;101615.53;4960657;28;20039;-71
2023/10/10 13:04:46;;;;;;;12.88;4.90;;;;;;;23.92;52.90;101617.13;4959258;28;20059;-71
2023/10/10 13:07:16;;;;;;;10.25;4.30;;;;;;;23.93;52.18;101612.63;4964610;28;20082;-72
2023/10/10 13:09:46;;;;;;;14.52;4.75;;;;;;;23.94;53.04;101611.66;4956088;28;20089;-71
2023/10/10 13:12:27;;;;;;;11.32;4.63;;;;;;;23.94;53.75;101606.25;4956976;28;20069;-72
2023/10/10 13:15:16;;;;;;;13.18;4.55;;;;;;;23.94;54.54;101596.34;4956254;28;20047;-72
2023/10/10 13:17:53;;;;;;;14.18;4.47;;;;;;;24.03;53.06;101602.91;4961330;28;20053;-73
2023/10/10 13:20:21;;;;;;;6.97;3.65;;;;;;;24.08;53.17;101598.00;4951880;28;20452;-73
2023/10/10 13:22:50;;;;;;;12.27;4.63;;;;;;;24.12;51.87;101594.13;4980882;28;20043;-70
2023/10/10 13:25:20;;;;;;;11.38;4.40;;;;;;;24.12;51.83;101596.81;4966055;28;20050;-72
2023/10/10 13:27:52;;;;;;;19.20;4.47;;;;;;;24.13;52.09;101597.66;4968437;28;20035;-72
2023/10/10 13:30:19;;;;;;;12.82;4.95;;;;;;;24.16;52.21;101592.06;4967084;28;20050;-73
2023/10/10 13:32:46;;;;;;;12.75;5.10;;;;;;;24.21;52.07;101595.25;4957979;28;20572;-72
2023/10/10 13:35:14;;;;;;;15.57;4.68;;;;;;;24.26;52.64;101593.06;4960744;28;20038;-70
2023/10/10 13:37:43;;;;;;;16.83;4.70;;;;;;;24.36;52.64;101604.00;4952299;28;20676;-72
2023/10/10 13:40:20;;;;;;;19.73;5.43;;;;;;;24.48;51.81;101599.50;4949997;28;20787;-72
2023/10/10 13:42:48;;;;;;;13.02;4.68;;;;;;;24.48;50.29;101592.25;4967620;28;20053;-72
2023/10/10 13:45:21;;;;;;;12.82;4.50;;;;;;;24.35;50.51;101592.34;4961750;28;20389;-71
2023/10/10 13:47:48;;;;;;;11.13;4.28;;;;;;;24.25;50.60;101594.03;4960931;28;20522;-71
2023/10/10 13:50:28;;;;;;;7.90;4.13;;;;;;;24.22;51.09;101593.41;4948480;28;20043;-72
2023/10/10 13:52:56;;;;;;;11.82;4.40;;;;;;;24.22;50.18;101594.25;4961385;28;20515;-73
2023/10/10 13:55:23;;;;;;;9.43;4.07;;;;;;;24.14;50.90;101596.69;4963183;28;20057;-73
2023/10/10 13:57:50;;;;;;;8.20;3.92;;;;;;;24.11;50.97;101592.41;4967547;28;20109;-73
2023/10/10 14:00:29;;;;;;;11.55;4.22;;;;;;;24.12;51.51;101593.25;4969586;28;20058;-72
2023/10/10 14:03:03;;;;;;;8.43;3.75;;;;;;;24.28;50.48;101585.72;4966464;28;20085;-73
2023/10/10 14:05:41;;;;;;;22.33;5.22;;;;;;;24.32;49.38;101589.88;4966556;28;20046;-72
2023/10/10 14:08:13;;;;;;;19.05;3.97;;;;;;;24.32;49.75;101591.72;4981439;28;20098;-71
2023/10/10 14:10:43;;;;;;;9.52;3.80;;;;;;;24.28;49.91;101587.53;4967332;28;20051;-72
2023/10/10 14:13:19;;;;;;;12.00;3.78;;;;;;;24.32;49.50;101576.41;4967236;28;20057;-72
2023/10/10 14:16:01;;;;;;;10.05;3.78;;;;;;;24.42;48.43;101578.41;4964528;28;20043;-71
2023/10/10 14:18:45;;;;;;;12.80;3.83;;;;;;;24.48;47.50;101562.59;4953655;28;20399;-71
2023/10/10 14:21:16;;;;;;;12.48;4.40;;;;;;;24.55;48.32;101568.38;4949172;28;20075;-72